BGY weather

Il Caravaggio International Airport
Bergamo, Lombardy, Italy

Public forecast

Using degrees Celsius for public forecast. Weather courtesy of forecast.io.

Current aviation weather report (METAR) for Il Caravaggio International Airport

Retrieved 2020/02/27 19:50 UTC (13 minutes ago):

LIME 271950Z VRB02KT 9999 BKN070 06/M05 Q1003 NOSIG

Aviation forecast (TAF) for Il Caravaggio International Airport

Retrieved 2020/02/27 18:00 UTC (2 hours ago):

TAF LIME 271700Z 2718/2818 35010KT 9999 SCT090 TEMPO 2721/2806 34015G25KT BECMG 2808/2810 VRB05KT